South Acworth, New Hampshire
Current Conditions -  °F | °C
As of 12:54 PM on Thursday 18 Dec 2014 (Local Time) from KVSF Reporting Station
Overcast Overcast  
Wind Chill: 28°   Ceiling: 2800
Heat Index: 37°   Visibility: 10mi
Dew Point: 26°   Wind: 14mph
Humidity: 65%   Direction: 280°W
Pressure: 29.79"   Gusts: 21mph
Location:  43.19°N, 72.29°W
Report Text: KVSF 181754Z AUTO 28012G18KT 10SM BKN028 OVC060 03/M03 A2979 RMK AO2 SLP094 T00281033 10028 20022 58005 TSNO
Loading
Personal Weather Stations






























Interactive Weather Map New forecast layout! Learn more

10-Day Weather Forecast

Advertisements
Track Severe Weather on mobile